Time;durP1;ratioP1;P1;durP2;ratioP2;P2;SDS_P1;SDS_P2;PMS_P1;PMS_P2;Temp;Humidity;BMP_temperature;BMP_pressure;BME280_temperature;BME280_humidity;BME280_pressure;Samples;Min_cycle;Max_cycle;Signal;HPM_P1;HPM_P2
2021/12/23 00:01:18;;;;;;;0.50;0.50;;;;;;;22.92;8.62;100158.03;5115074;28;20024;-75
2021/12/23 00:03:44;;;;;;;0.40;0.40;;;;;;;22.95;8.29;100152.00;5130988;27;20028;-75
2021/12/23 00:06:09;;;;;;;0.52;0.52;;;;;;;22.95;8.79;100140.28;5096520;28;20043;-75
2021/12/23 00:08:34;;;;;;;0.38;0.38;;;;;;;22.94;8.69;100138.66;5113810;28;20053;-75
2021/12/23 00:11:00;;;;;;;0.30;0.30;;;;;;;22.94;8.69;100125.84;5094322;28;20055;-75
2021/12/23 00:13:25;;;;;;;0.40;0.40;;;;;;;22.93;8.62;100113.31;5094234;28;20046;-75
2021/12/23 00:18:47;;;;;;;0.40;0.40;;;;;;;22.90;8.68;100086.63;5094437;28;20028;-74
2021/12/23 00:23:56;;;;;;;0.38;0.38;;;;;;;22.93;8.77;100082.53;5094196;28;20039;-74
2021/12/23 00:26:21;;;;;;;0.50;0.50;;;;;;;22.92;8.86;100065.38;5076586;28;20134;-74
2021/12/23 00:28:46;;;;;;;0.38;0.38;;;;;;;22.91;8.84;100058.28;5094252;28;20458;-77
2021/12/23 00:31:12;;;;;;;0.40;0.40;;;;;;;22.92;8.89;100048.19;5094419;28;20477;-75
2021/12/23 00:33:40;;;;;;;0.40;0.40;;;;;;;22.93;8.82;100036.22;5093815;28;20028;-75
2021/12/23 00:36:07;;;;;;;0.32;0.32;;;;;;;22.91;8.90;100031.03;5094079;28;20028;-75
2021/12/23 00:38:37;;;;;;;0.20;0.20;;;;;;;22.88;9.01;100026.13;5094144;28;20085;-75
2021/12/23 00:41:03;;;;;;;0.40;0.40;;;;;;;22.89;8.92;100011.44;5093554;28;20024;-75
2021/12/23 00:43:30;;;;;;;0.50;0.50;;;;;;;22.91;8.91;99998.34;5093705;28;20412;-75
2021/12/23 00:45:55;;;;;;;0.40;0.40;;;;;;;22.90;8.88;99987.72;5127251;27;20111;-75
2021/12/23 00:48:20;;;;;;;0.40;0.40;;;;;;;22.88;9.05;99979.81;5114355;28;20035;-75
2021/12/23 00:50:47;;;;;;;0.30;0.30;;;;;;;22.90;8.97;99969.44;5114203;28;20031;-75
2021/12/23 00:53:17;;;;;;;0.30;0.30;;;;;;;22.87;9.14;99970.03;5113919;28;20062;-75
2021/12/23 00:55:43;;;;;;;0.45;0.45;;;;;;;22.87;9.11;99953.69;5096411;28;20020;-75
2021/12/23 00:58:09;;;;;;;0.30;0.30;;;;;;;22.87;9.17;99946.31;5114182;28;20082;-74
2021/12/23 01:00:34;;;;;;;0.40;0.40;;;;;;;22.88;9.16;99934.31;5114254;28;20023;-74
2021/12/23 01:03:01;;;;;;;0.40;0.40;;;;;;;22.88;9.18;99919.88;5096133;28;20027;-75
2021/12/23 01:05:26;;;;;;;0.40;0.40;;;;;;;22.87;9.14;99904.66;5114623;28;20034;-74
2021/12/23 01:07:52;;;;;;;0.40;0.40;;;;;;;22.87;9.23;99902.72;5114733;28;20055;-74
2021/12/23 01:10:17;;;;;;;0.30;0.30;;;;;;;22.87;9.29;99891.03;5128534;28;20047;-75
2021/12/23 01:12:49;;;;;;;0.40;0.40;;;;;;;22.87;9.22;99880.13;5135286;28;20135;-74
2021/12/23 01:15:27;;;;;;;0.30;0.30;;;;;;;22.86;9.44;99871.13;5134935;28;20035;-74
2021/12/23 01:17:59;;;;;;;0.38;0.38;;;;;;;22.85;9.45;99858.63;5135018;28;20027;-74
2021/12/23 01:20:29;;;;;;;0.40;0.40;;;;;;;22.87;9.36;99855.59;5134738;28;20080;-74
2021/12/23 01:22:55;;;;;;;0.40;0.40;;;;;;;22.86;9.51;99854.78;5134517;28;20122;-74
2021/12/23 01:25:21;;;;;;;0.40;0.40;;;;;;;22.85;9.54;99842.25;5134284;28;20023;-75
2021/12/23 01:27:46;;;;;;;0.40;0.40;;;;;;;22.84;9.51;99835.19;5134468;28;20029;-75
2021/12/23 01:30:13;;;;;;;0.30;0.30;;;;;;;22.86;9.69;99826.72;5134258;28;20031;-75
2021/12/23 01:32:39;;;;;;;0.40;0.40;;;;;;;22.85;9.69;99819.63;5134337;28;20428;-74
2021/12/23 01:35:05;;;;;;;0.30;0.30;;;;;;;22.86;9.70;99803.00;5134203;28;20117;-74
2021/12/23 01:37:30;;;;;;;0.25;0.25;;;;;;;22.85;9.60;99797.84;5133901;28;20023;-74
2021/12/23 01:39:56;;;;;;;0.40;0.40;;;;;;;22.86;9.65;99783.13;5134187;28;20053;-75
2021/12/23 01:42:21;;;;;;;0.38;0.38;;;;;;;22.86;9.76;99788.59;5133752;28;20024;-75
2021/12/23 01:44:46;;;;;;;0.30;0.30;;;;;;;22.84;9.89;99779.88;5134145;28;20019;-75
2021/12/23 01:47:12;;;;;;;0.35;0.35;;;;;;;22.84;9.79;99774.44;5134610;28;20039;-75
2021/12/23 01:49:37;;;;;;;0.40;0.40;;;;;;;22.83;10.00;99761.91;5134117;28;20533;-74
2021/12/23 01:52:03;;;;;;;0.35;0.35;;;;;;;22.82;9.84;99752.94;5134319;28;20027;-75
2021/12/23 01:54:28;;;;;;;0.20;0.20;;;;;;;22.82;9.97;99747.47;5134082;28;20437;-75
2021/12/23 01:56:54;;;;;;;0.38;0.38;;;;;;;22.84;10.14;99739.03;5133936;28;20031;-74
2021/12/23 01:59:20;;;;;;;0.30;0.30;;;;;;;22.85;9.98;99727.84;5099182;28;20081;-75
2021/12/23 02:01:45;;;;;;;0.30;0.30;;;;;;;22.83;10.13;99719.13;5134035;28;20019;-75
2021/12/23 02:04:11;;;;;;;0.50;0.50;;;;;;;22.83;10.15;99718.31;5133967;28;20027;-74
2021/12/23 02:06:36;;;;;;;0.30;0.30;;;;;;;22.84;10.13;99709.06;5133947;27;20038;-74
2021/12/23 02:09:02;;;;;;;0.30;0.30;;;;;;;22.83;10.14;99710.94;5137015;27;20457;-75
2021/12/23 02:11:28;;;;;;;0.40;0.30;;;;;;;22.84;10.20;99709.06;5138243;27;20042;-75
2021/12/23 02:13:53;;;;;;;0.32;0.32;;;;;;;22.83;10.17;99691.88;5137487;27;20465;-75
2021/12/23 02:16:19;;;;;;;0.30;0.30;;;;;;;22.82;10.30;99689.47;5137553;27;20019;-75
2021/12/23 02:18:44;;;;;;;0.30;0.30;;;;;;;22.83;10.44;99682.91;5138385;27;20480;-75
2021/12/23 02:21:09;;;;;;;0.22;0.22;;;;;;;22.83;10.49;99669.28;5119928;27;20038;-74
2021/12/23 02:23:35;;;;;;;0.30;0.30;;;;;;;22.84;10.43;99654.56;5137378;27;20015;-75
2021/12/23 02:26:00;;;;;;;0.30;0.30;;;;;;;22.82;10.50;99651.34;5138211;27;20041;-74
2021/12/23 02:28:27;;;;;;;0.20;0.20;;;;;;;22.84;10.85;99643.69;5137483;27;20457;-75
2021/12/23 02:30:52;;;;;;;0.30;0.30;;;;;;;22.83;10.61;99637.41;5137421;27;20079;-75
2021/12/23 02:33:20;;;;;;;0.20;0.20;;;;;;;22.82;10.62;99629.53;5118965;27;20023;-74
2021/12/23 02:35:45;;;;;;;0.30;0.30;;;;;;;22.81;10.57;99623.25;5118898;27;20116;-75
2021/12/23 02:38:10;;;;;;;0.43;0.40;;;;;;;22.84;10.69;99611.00;5119001;27;20051;-74
2021/12/23 02:40:38;;;;;;;0.25;0.25;;;;;;;22.81;10.76;99606.09;5137036;27;20027;-74
2021/12/23 02:43:17;;;;;;;0.30;0.30;;;;;;;22.88;10.80;99595.69;5137389;27;20039;-74
2021/12/23 02:45:43;;;;;;;0.28;0.28;;;;;;;22.82;10.91;99589.47;5122394;27;20042;-74
2021/12/23 02:48:17;;;;;;;0.50;0.30;;;;;;;22.82;10.84;99577.78;5098366;28;20069;-74
2021/12/23 02:50:44;;;;;;;0.30;0.30;;;;;;;22.80;10.95;99571.78;5116511;28;20038;-74
2021/12/23 02:53:10;;;;;;;0.30;0.30;;;;;;;22.79;10.97;99564.72;5116000;28;20528;-74
2021/12/23 02:55:35;;;;;;;0.20;0.20;;;;;;;22.82;11.04;99561.44;5097977;28;20035;-74
2021/12/23 02:58:01;;;;;;;0.20;0.20;;;;;;;22.81;11.13;99557.09;5098120;28;20024;-74
2021/12/23 03:00:26;;;;;;;0.25;0.25;;;;;;;22.79;10.92;99548.38;5116340;28;20469;-73
2021/12/23 03:02:52;;;;;;;0.30;0.30;;;;;;;22.81;11.07;99544.25;5116347;28;20462;-75
2021/12/23 03:05:17;;;;;;;0.20;0.20;;;;;;;22.82;11.13;99536.91;5115776;28;20386;-74
2021/12/23 03:07:42;;;;;;;0.20;0.20;;;;;;;22.82;11.23;99537.72;5116047;28;20023;-75
2021/12/23 03:10:08;;;;;;;0.30;0.30;;;;;;;22.81;11.27;99519.75;5126626;27;20047;-75
2021/12/23 03:12:34;;;;;;;0.20;0.20;;;;;;;22.80;11.30;99518.13;5136558;27;20035;-74
2021/12/23 03:15:00;;;;;;;0.20;0.20;;;;;;;22.79;11.19;99515.69;5117859;27;20402;-75
2021/12/23 03:17:25;;;;;;;0.20;0.20;;;;;;;22.78;11.42;99508.63;5136543;27;20047;-75
2021/12/23 03:19:51;;;;;;;0.20;0.20;;;;;;;22.80;11.35;99490.91;5136353;27;20038;-75
2021/12/23 03:22:16;;;;;;;0.20;0.20;;;;;;;22.81;11.49;99494.44;5136491;27;20023;-75
2021/12/23 03:24:41;;;;;;;0.30;0.30;;;;;;;22.79;11.39;99496.63;5137026;27;20023;-75
2021/12/23 03:27:07;;;;;;;0.22;0.22;;;;;;;22.83;11.42;99478.59;5135898;27;20465;-74
2021/12/23 03:29:32;;;;;;;0.17;0.17;;;;;;;22.86;11.46;99478.03;5136222;27;20019;-74
2021/12/23 03:31:58;;;;;;;0.20;0.20;;;;;;;22.90;11.42;99459.97;5136726;27;20080;-74
2021/12/23 03:34:23;;;;;;;0.20;0.20;;;;;;;22.91;11.52;99452.63;5136114;27;20034;-74
2021/12/23 03:36:48;;;;;;;0.20;0.20;;;;;;;22.94;11.61;99446.56;5135970;27;20038;-74
2021/12/23 03:39:14;;;;;;;0.20;0.20;;;;;;;22.94;11.62;99446.56;5117328;27;20019;-74
2021/12/23 03:41:39;;;;;;;0.20;0.20;;;;;;;22.93;11.52;99434.88;5135830;27;20030;-75
2021/12/23 03:44:05;;;;;;;1.00;0.28;;;;;;;22.95;11.65;99431.88;5135883;27;20023;-74
2021/12/23 03:46:30;;;;;;;0.28;0.20;;;;;;;22.95;11.68;99407.34;5136132;27;20027;-74
2021/12/23 03:48:56;;;;;;;0.20;0.20;;;;;;;22.94;11.92;99403.81;5136292;27;20031;-75
2021/12/23 03:51:21;;;;;;;0.20;0.20;;;;;;;22.93;11.89;99394.00;5136362;27;20373;-75
2021/12/23 03:53:46;;;;;;;0.20;0.20;;;;;;;22.94;11.78;99392.91;5136061;27;20589;-75
2021/12/23 03:56:14;;;;;;;0.20;0.20;;;;;;;22.94;12.06;99382.03;5136754;27;20031;-75
2021/12/23 03:58:39;;;;;;;0.20;0.20;;;;;;;22.93;12.01;99371.41;5135858;27;20522;-75
2021/12/23 04:01:04;;;;;;;0.15;0.15;;;;;;;22.94;12.02;99365.69;5136227;27;20027;-75
2021/12/23 04:03:31;;;;;;;0.20;0.20;;;;;;;22.92;12.10;99365.16;5117958;27;20019;-75
2021/12/23 04:05:56;;;;;;;0.15;0.15;;;;;;;22.91;12.12;99355.38;5138125;27;20099;-75
2021/12/23 04:08:22;;;;;;;0.28;0.28;;;;;;;22.95;12.07;99361.03;5135745;27;20015;-74
2021/12/23 04:10:47;;;;;;;0.28;0.28;;;;;;;22.92;12.20;99346.09;5135056;27;20043;-74
2021/12/23 04:13:12;;;;;;;0.17;0.17;;;;;;;22.93;12.33;99342.25;5135623;27;20092;-74
2021/12/23 04:15:39;;;;;;;0.20;0.20;;;;;;;22.92;12.15;99334.38;5135384;27;20043;-75
2021/12/23 04:18:04;;;;;;;0.20;0.20;;;;;;;22.91;12.35;99333.56;5135506;27;20522;-74
2021/12/23 04:20:34;;;;;;;0.20;0.20;;;;;;;22.91;12.27;99322.69;5135154;27;20015;-74
2021/12/23 04:23:00;;;;;;;0.22;0.22;;;;;;;22.91;12.39;99319.94;5117803;27;20024;-74
2021/12/23 04:25:26;;;;;;;0.15;0.15;;;;;;;22.90;12.53;99310.16;5135284;27;20030;-74
2021/12/23 04:27:53;;;;;;;0.10;0.10;;;;;;;22.91;12.57;99314.50;5135235;27;20027;-74
2021/12/23 04:30:18;;;;;;;0.13;0.13;;;;;;;22.91;12.52;99300.88;5134985;27;20114;-75
2021/12/23 04:32:44;;;;;;;0.10;0.10;;;;;;;22.93;12.56;99295.94;5135365;27;20047;-75
2021/12/23 04:35:10;;;;;;;0.20;0.20;;;;;;;22.95;12.54;99288.28;5135084;27;20050;-75
2021/12/23 04:37:35;;;;;;;0.20;0.20;;;;;;;22.98;12.44;99278.72;5135753;27;20343;-74
2021/12/23 04:40:02;;;;;;;0.20;0.20;;;;;;;23.00;12.44;99280.03;5135064;27;20373;-75
2021/12/23 04:42:27;;;;;;;0.20;0.20;;;;;;;23.05;12.50;99273.69;5134783;27;20020;-74
2021/12/23 04:44:53;;;;;;;0.20;0.20;;;;;;;23.07;12.31;99268.78;5128669;27;20023;-74
2021/12/23 04:47:18;;;;;;;0.20;0.20;;;;;;;23.08;12.44;99267.69;5096286;28;20378;-74
2021/12/23 04:49:44;;;;;;;0.10;0.10;;;;;;;23.12;12.53;99251.53;5114317;28;20402;-74
2021/12/23 04:52:10;;;;;;;0.20;0.20;;;;;;;23.15;12.53;99242.78;5113842;28;20035;-74
2021/12/23 04:54:36;;;;;;;0.20;0.20;;;;;;;23.17;12.28;99243.28;5113883;28;20032;-75
2021/12/23 04:57:01;;;;;;;0.68;0.40;;;;;;;23.21;12.35;99236.09;5113850;28;20378;-74
2021/12/23 04:59:26;;;;;;;5.13;1.77;;;;;;;23.22;12.56;99224.91;5114202;28;20023;-75
2021/12/23 05:01:52;;;;;;;2.95;1.05;;;;;;;23.24;12.14;99219.97;5113897;28;20034;-74
2021/12/23 05:04:17;;;;;;;1.10;0.88;;;;;;;23.22;12.57;99205.03;5114113;28;20031;-74
2021/12/23 05:06:43;;;;;;;2.20;1.08;;;;;;;23.28;12.57;99203.81;5114127;28;20023;-75
2021/12/23 05:09:08;;;;;;;1.50;0.70;;;;;;;23.33;12.35;99184.63;5113920;28;20019;-74
2021/12/23 05:11:34;;;;;;;1.00;0.60;;;;;;;23.35;12.30;99196.06;5135869;28;20050;-75
2021/12/23 05:13:59;;;;;;;1.17;0.40;;;;;;;23.38;12.12;99181.00;5135848;28;20035;-75
2021/12/23 05:16:25;;;;;;;0.40;0.40;;;;;;;23.40;12.11;99171.44;5138776;28;20023;-74
2021/12/23 05:18:50;;;;;;;0.55;0.50;;;;;;;23.43;12.42;99170.81;5139134;28;20016;-75
2021/12/23 05:21:15;;;;;;;0.55;0.40;;;;;;;23.45;12.46;99165.06;5120693;28;20055;-75
2021/12/23 05:23:41;;;;;;;0.47;0.30;;;;;;;23.47;12.24;99160.09;5156255;28;20015;-73
2021/12/23 05:26:08;;;;;;;0.35;0.30;;;;;;;23.46;12.15;99153.06;5139014;28;20035;-73
2021/12/23 05:28:33;;;;;;;0.35;0.30;;;;;;;23.51;12.49;99143.94;5158975;28;20043;-74
2021/12/23 05:30:59;;;;;;;0.28;0.22;;;;;;;23.53;12.51;99145.25;5131222;28;20049;-74
2021/12/23 05:33:24;;;;;;;0.38;0.22;;;;;;;23.53;12.60;99130.84;5155611;28;20015;-75
2021/12/23 05:35:49;;;;;;;1.08;0.25;;;;;;;23.58;12.38;99133.44;5146199;28;20023;-74
2021/12/23 05:38:15;;;;;;;0.20;0.20;;;;;;;23.62;12.43;99129.00;5147320;28;20019;-75
2021/12/23 05:40:40;;;;;;;1.55;0.20;;;;;;;23.64;12.27;99129.50;5155406;28;20019;-76
2021/12/23 05:43:06;;;;;;;0.20;0.20;;;;;;;23.64;12.34;99115.84;5151966;27;20491;-75
2021/12/23 05:45:31;;;;;;;0.70;0.40;;;;;;;23.71;12.29;99126.34;5153290;27;20027;-74
2021/12/23 05:47:57;;;;;;;0.43;0.30;;;;;;;23.70;12.33;99120.09;5150723;27;20023;-76
2021/12/23 05:50:23;;;;;;;0.65;0.20;;;;;;;23.71;12.62;99116.25;5149944;27;20038;-77
2021/12/23 05:52:49;;;;;;;0.63;0.32;;;;;;;23.72;12.46;99109.69;5129181;27;20019;-75
2021/12/23 05:55:14;;;;;;;1.23;0.50;;;;;;;23.75;12.54;99111.81;5127542;27;20030;-75
2021/12/23 05:57:40;;;;;;;0.40;0.30;;;;;;;23.71;12.44;99099.06;5139624;27;20098;-75
2021/12/23 06:00:11;;;;;;;0.38;0.30;;;;;;;23.75;12.47;99098.16;5138718;27;20026;-76
2021/12/23 06:02:37;;;;;;;0.85;0.40;;;;;;;23.79;12.69;99096.44;5139044;27;20109;-75
2021/12/23 06:05:04;;;;;;;0.20;0.20;;;;;;;23.79;12.61;99090.97;5141169;27;20027;-75
2021/12/23 06:07:29;;;;;;;0.43;0.30;;;;;;;23.83;12.42;99080.28;5140100;27;20346;-76
2021/12/23 06:09:55;;;;;;;0.22;0.22;;;;;;;23.85;12.33;99077.25;5139443;27;20039;-76
2021/12/23 06:12:20;;;;;;;0.20;0.20;;;;;;;23.86;12.67;99071.50;5139960;27;20023;-77
2021/12/23 06:14:46;;;;;;;0.20;0.20;;;;;;;23.88;12.60;99057.53;5138332;27;20370;-76
2021/12/23 06:17:11;;;;;;;0.25;0.25;;;;;;;23.90;12.50;99058.03;5137859;27;20138;-75
2021/12/23 06:19:36;;;;;;;0.20;0.20;;;;;;;23.94;12.85;99046.22;5137771;27;20028;-75
2021/12/23 06:22:02;;;;;;;0.15;0.10;;;;;;;23.97;13.25;99042.03;5138102;27;20068;-75
2021/12/23 06:24:27;;;;;;;0.98;0.30;;;;;;;23.95;12.97;99033.34;5137842;27;20023;-75
2021/12/23 06:26:53;;;;;;;2.05;0.30;;;;;;;23.96;12.92;99027.59;5138096;27;20023;-75
2021/12/23 06:29:18;;;;;;;0.70;0.30;;;;;;;24.02;13.20;99030.19;5137062;27;20034;-76
2021/12/23 06:31:43;;;;;;;0.40;0.40;;;;;;;24.04;13.15;99019.78;5137234;27;20035;-75
2021/12/23 06:34:09;;;;;;;2.63;0.60;;;;;;;24.07;13.06;99005.53;5137108;27;20365;-75
2021/12/23 06:36:34;;;;;;;1.48;0.80;;;;;;;24.07;12.83;98998.13;5137078;27;20030;-74
2021/12/23 06:39:00;;;;;;;6.05;1.33;;;;;;;24.09;12.94;98998.63;5136744;27;20550;-75
2021/12/23 06:41:25;;;;;;;3.88;1.38;;;;;;;24.10;13.61;98991.25;5118912;27;20023;-76
2021/12/23 06:43:51;;;;;;;1.77;1.10;;;;;;;24.10;13.34;99002.19;5137741;27;20023;-76
2021/12/23 06:46:16;;;;;;;2.53;1.00;;;;;;;24.13;13.20;98996.09;5118837;27;20088;-75
2021/12/23 06:48:41;;;;;;;1.48;0.75;;;;;;;24.06;13.09;98984.78;5136592;27;20026;-76
2021/12/23 06:51:07;;;;;;;1.50;0.57;;;;;;;24.16;13.18;98985.38;5136507;27;20080;-76
2021/12/23 06:53:32;;;;;;;1.48;0.80;;;;;;;24.06;13.00;98982.88;5117804;27;20076;-75
2021/12/23 06:56:00;;;;;;;3.22;0.60;;;;;;;24.19;12.88;98984.72;5136806;27;20019;-75
2021/12/23 06:58:25;;;;;;;2.20;0.93;;;;;;;24.21;12.75;98980.88;5136698;27;20057;-75
2021/12/23 07:00:51;;;;;;;0.60;0.60;;;;;;;24.22;13.12;98977.03;5118266;27;20023;-74
2021/12/23 07:03:17;;;;;;;1.95;0.70;;;;;;;24.22;13.04;98960.66;5136371;27;20453;-75
2021/12/23 07:05:43;;;;;;;2.35;0.77;;;;;;;24.23;12.66;98965.00;5137296;27;20037;-75
2021/12/23 07:08:15;;;;;;;2.65;0.85;;;;;;;24.22;12.69;98961.47;5118436;27;20019;-74
2021/12/23 07:10:41;;;;;;;1.17;0.63;;;;;;;24.26;12.84;98953.44;5118415;27;20036;-75
2021/12/23 07:13:06;;;;;;;1.25;0.70;;;;;;;24.28;12.80;98948.47;5136560;27;20362;-74
2021/12/23 07:15:33;;;;;;;1.77;0.70;;;;;;;24.27;12.88;98952.34;5136485;27;20023;-74
2021/12/23 07:17:59;;;;;;;1.33;0.65;;;;;;;24.27;13.03;98949.59;5136615;27;20020;-74
2021/12/23 07:20:25;;;;;;;4.55;2.53;;;;;;;24.23;12.82;98934.97;5136510;27;20381;-75
2021/12/23 07:22:51;;;;;;;4.57;1.63;;;;;;;24.31;12.89;98931.47;5136027;27;20019;-76
2021/12/23 07:25:16;;;;;;;1.58;0.90;;;;;;;24.31;12.96;98915.88;5136281;27;20110;-74
2021/12/23 07:27:42;;;;;;;2.08;0.90;;;;;;;24.26;12.93;98913.28;5135911;27;20019;-76
2021/12/23 07:30:08;;;;;;;1.55;0.75;;;;;;;24.23;12.96;98904.94;5117646;27;20035;-76
2021/12/23 07:32:34;;;;;;;2.35;0.98;;;;;;;24.24;13.12;98910.09;5137247;27;20023;-75
2021/12/23 07:34:59;;;;;;;3.08;0.80;;;;;;;24.27;12.75;98897.75;5136509;27;20031;-74
2021/12/23 07:37:25;;;;;;;2.55;0.90;;;;;;;24.34;12.96;98896.16;5138051;27;20109;-74
2021/12/23 07:39:53;;;;;;;3.75;1.00;;;;;;;24.38;12.89;98897.13;5139205;27;20046;-75
2021/12/23 07:42:20;;;;;;;3.15;0.73;;;;;;;24.38;12.97;98882.69;5086750;27;20039;-75
2021/12/23 07:44:46;;;;;;;1.25;0.60;;;;;;;24.40;12.66;98888.63;5136183;27;20110;-75
2021/12/23 07:47:12;;;;;;;1.80;0.77;;;;;;;24.39;12.90;98887.03;5119224;28;20106;-75
2021/12/23 07:49:37;;;;;;;1.98;0.90;;;;;;;24.41;13.11;98883.97;5120168;28;20031;-74
2021/12/23 07:52:03;;;;;;;2.25;0.82;;;;;;;24.41;12.99;98864.88;5081657;28;20023;-76
2021/12/23 07:54:28;;;;;;;2.70;0.80;;;;;;;24.42;12.76;98869.19;5116921;28;20051;-76
2021/12/23 07:56:54;;;;;;;1.67;0.60;;;;;;;24.40;13.11;98865.97;5116520;28;20030;-76
2021/12/23 07:59:19;;;;;;;1.45;0.50;;;;;;;24.46;13.14;98862.00;5116797;28;20047;-76
2021/12/23 08:01:45;;;;;;;0.68;0.45;;;;;;;24.44;12.78;98854.13;5116493;28;20020;-76
2021/12/23 08:04:10;;;;;;;4.32;0.40;;;;;;;24.48;12.74;98843.38;5116351;28;20027;-76
2021/12/23 08:06:35;;;;;;;1.77;0.50;;;;;;;24.49;13.06;98845.78;5116702;28;20042;-76
2021/12/23 08:09:01;;;;;;;1.50;0.70;;;;;;;24.47;13.13;98842.53;5116234;28;20047;-77
2021/12/23 08:11:26;;;;;;;5.40;2.53;;;;;;;24.48;12.80;98841.44;5137778;27;20053;-75
2021/12/23 08:13:52;;;;;;;8.85;3.28;;;;;;;24.48;12.85;98838.69;5137802;27;20457;-77
2021/12/23 08:16:17;;;;;;;7.13;2.60;;;;;;;24.51;12.89;98837.28;5143594;27;20445;-76
2021/12/23 08:18:43;;;;;;;8.63;2.30;;;;;;;24.51;12.84;98837.28;5139307;27;20041;-76
2021/12/23 08:21:08;;;;;;;4.70;1.80;;;;;;;24.49;12.70;98832.13;5118592;27;20042;-75
2021/12/23 08:23:33;;;;;;;3.72;1.33;;;;;;;24.50;12.75;98820.06;5136335;27;20035;-76
2021/12/23 08:26:03;;;;;;;2.65;1.20;;;;;;;24.51;12.79;98823.63;5117225;27;20130;-77
2021/12/23 08:28:28;;;;;;;2.50;0.88;;;;;;;24.57;13.12;98824.28;5118030;27;20027;-78
2021/12/23 08:30:54;;;;;;;1.30;0.70;;;;;;;24.55;13.07;98822.66;5135531;27;20031;-77
2021/12/23 08:33:19;;;;;;;1.05;0.70;;;;;;;24.54;13.12;98820.25;5135401;27;20358;-77
2021/12/23 08:35:45;;;;;;;1.88;0.80;;;;;;;24.59;13.05;98816.56;5135750;27;20023;-77
2021/12/23 08:38:10;;;;;;;0.93;0.40;;;;;;;24.61;13.11;98808.88;5116575;27;20497;-78
2021/12/23 08:40:36;;;;;;;1.38;0.60;;;;;;;24.58;12.83;98806.75;5136563;27;20027;-77
2021/12/23 08:43:02;;;;;;;0.88;0.47;;;;;;;24.59;13.06;98802.94;5117095;27;20478;-77
2021/12/23 08:45:28;;;;;;;0.47;0.40;;;;;;;24.58;13.13;98799.41;5117314;27;20106;-76
2021/12/23 08:47:56;;;;;;;0.30;0.30;;;;;;;24.60;12.83;98802.59;5135751;27;20023;-78
2021/12/23 08:50:22;;;;;;;0.65;0.32;;;;;;;24.58;13.05;98804.03;5100698;27;20027;-77
2021/12/23 08:52:47;;;;;;;2.05;0.28;;;;;;;24.61;12.81;98803.41;5135868;27;20065;-76
2021/12/23 08:55:13;;;;;;;1.95;0.40;;;;;;;24.63;13.00;98798.41;5116885;27;20234;-77
2021/12/23 08:57:39;;;;;;;0.47;0.30;;;;;;;24.62;13.05;98799.56;5116653;27;20027;-75
2021/12/23 09:00:05;;;;;;;2.00;0.30;;;;;;;24.63;12.83;98803.88;5117063;27;20023;-77
2021/12/23 09:02:31;;;;;;;0.45;0.30;;;;;;;24.59;13.04;98798.25;5136035;27;20020;-76
2021/12/23 09:04:59;;;;;;;0.85;0.20;;;;;;;24.54;13.27;98788.31;5137172;27;20385;-79
2021/12/23 09:07:25;;;;;;;0.28;0.28;;;;;;;24.61;12.81;98792.47;5119682;28;20034;-77
2021/12/23 09:09:51;;;;;;;0.22;0.22;;;;;;;24.64;12.88;98786.38;5093792;28;20394;-76
2021/12/23 09:12:18;;;;;;;0.20;0.20;;;;;;;24.61;13.04;98770.63;5080037;28;20023;-79
2021/12/23 09:14:43;;;;;;;0.17;0.17;;;;;;;24.63;12.99;98773.84;5097009;28;20181;-76
2021/12/23 09:17:09;;;;;;;0.20;0.20;;;;;;;24.63;12.52;98773.84;5118717;28;20028;-77
2021/12/23 09:19:34;;;;;;;0.20;0.20;;;;;;;24.65;12.73;98760.69;5121425;28;20039;-77
2021/12/23 09:21:59;;;;;;;0.63;0.30;;;;;;;24.67;12.75;98769.38;5121314;28;20065;-77
2021/12/23 09:24:26;;;;;;;0.25;0.25;;;;;;;24.66;12.58;98757.59;5121380;28;20027;-77
2021/12/23 09:27:08;;;;;;;0.25;0.25;;;;;;;24.68;12.87;98754.56;5121234;28;20062;-76
2021/12/23 09:34:53;;;;;;;0.20;0.20;;;;;;;24.73;12.96;98747.03;5091537;28;20385;-76
2021/12/23 09:37:19;;;;;;;0.20;0.20;;;;;;;24.72;12.83;98733.69;5120921;28;20154;-78
2021/12/23 09:39:45;;;;;;;0.20;0.20;;;;;;;24.66;12.93;98743.94;5120455;28;20024;-78
2021/12/23 09:42:10;;;;;;;0.20;0.20;;;;;;;24.68;12.87;98733.53;5119462;28;20374;-76
2021/12/23 09:44:36;;;;;;;0.40;0.20;;;;;;;24.70;12.81;98733.22;5120471;28;20119;-77
2021/12/23 09:47:03;;;;;;;0.10;0.10;;;;;;;24.71;12.64;98726.59;5119835;28;20465;-77
2021/12/23 09:49:31;;;;;;;0.30;0.30;;;;;;;24.71;13.01;98719.22;5135834;27;20032;-77
2021/12/23 09:51:57;;;;;;;0.55;0.40;;;;;;;24.68;12.90;98710.84;5120262;28;20449;-77
2021/12/23 09:54:24;;;;;;;0.20;0.20;;;;;;;24.69;13.12;98707.81;5122010;28;20050;-78
2021/12/23 09:56:49;;;;;;;0.17;0.17;;;;;;;24.71;12.83;98707.50;5120821;28;20024;-78
2021/12/23 09:59:15;;;;;;;2.65;0.20;;;;;;;24.73;12.93;98702.50;5103771;28;20031;-78
2021/12/23 10:01:40;;;;;;;0.20;0.20;;;;;;;24.64;13.07;98699.78;5087834;28;20079;-77
2021/12/23 10:04:06;;;;;;;0.38;0.20;;;;;;;24.77;13.17;98692.56;5120669;28;20032;-77
2021/12/23 10:06:32;;;;;;;0.10;0.10;;;;;;;24.78;13.02;98688.69;5121858;28;20028;-77
2021/12/23 10:08:58;;;;;;;0.55;0.30;;;;;;;24.78;13.08;98683.22;5121019;28;20097;-77
2021/12/23 10:31:02;;;;;;;3.88;2.05;;;;;;;24.85;13.59;98631.63;5054290;28;20041;-77
2021/12/23 10:33:42;;;;;;;3.50;1.63;;;;;;;24.86;13.22;98627.75;5053668;28;20040;-77
2021/12/23 10:38:37;;;;;;;2.88;1.17;;;;;;;24.87;13.03;98615.72;5037817;28;20435;-77
2021/12/23 10:41:14;;;;;;;7.10;2.47;;;;;;;24.86;13.09;98608.63;5053956;28;20112;-76
2021/12/23 10:43:40;;;;;;;4.82;2.08;;;;;;;24.89;13.21;98599.00;5054302;28;20047;-78
2021/12/23 10:46:11;;;;;;;6.15;1.95;;;;;;;24.88;13.34;98589.19;5064990;28;20032;-77
2021/12/23 10:48:45;;;;;;;3.75;1.45;;;;;;;24.92;13.35;98593.69;5057494;28;20167;-77
2021/12/23 10:51:16;;;;;;;2.58;1.10;;;;;;;24.95;13.38;98594.94;5088644;27;20042;-76
2021/12/23 10:59:16;;;;;;;2.65;0.60;;;;;;;24.91;13.38;98575.66;5121916;27;20495;-76
2021/12/23 11:02:17;;;;;;;0.95;0.52;;;;;;;24.97;13.26;98570.03;5136618;27;20031;-75
2021/12/23 11:05:01;;;;;;;1.55;0.50;;;;;;;24.99;13.35;98562.31;5120688;27;20034;-76
2021/12/23 11:07:43;;;;;;;2.03;0.50;;;;;;;24.90;13.43;98557.66;5136845;27;20027;-76
2021/12/23 11:10:25;;;;;;;2.17;0.40;;;;;;;24.95;13.51;98550.44;5114672;28;20050;-78
2021/12/23 11:38:47;;;;;;;4.03;1.20;;;;;;;25.02;13.21;98501.53;5114542;28;20043;-77
2021/12/23 11:43:53;;;;;;;1.85;0.82;;;;;;;24.98;13.35;98489.66;5115317;28;20378;-76
2021/12/23 11:46:25;;;;;;;1.00;0.60;;;;;;;25.04;13.33;98474.66;5105682;28;20031;-74
2021/12/23 11:48:55;;;;;;;2.88;0.88;;;;;;;25.02;13.66;98474.19;5097762;28;20050;-75
2021/12/23 11:54:11;;;;;;;3.80;0.50;;;;;;;25.05;13.31;98457.94;5115258;28;20078;-78
2021/12/23 11:56:47;;;;;;;3.25;0.47;;;;;;;25.03;13.12;98456.69;5115777;28;20050;-77
2021/12/23 11:59:15;;;;;;;0.40;0.30;;;;;;;25.04;13.25;98447.34;5117870;28;20020;-76
2021/12/23 12:01:45;;;;;;;0.22;0.22;;;;;;;25.03;13.46;98453.97;5115563;28;20093;-77
2021/12/23 12:04:14;;;;;;;1.17;0.20;;;;;;;25.04;13.59;98442.69;5114639;28;20454;-77
2021/12/23 12:06:43;;;;;;;1.30;0.30;;;;;;;25.01;13.51;98435.16;5097346;28;20057;-77
2021/12/23 12:09:10;;;;;;;0.85;0.20;;;;;;;24.91;13.22;98433.59;5114694;28;20051;-77
2021/12/23 12:11:35;;;;;;;1.45;0.22;;;;;;;25.01;13.58;98435.16;5115044;28;20032;-76
2021/12/23 12:14:00;;;;;;;0.52;0.40;;;;;;;25.03;13.64;98432.09;5114962;28;20019;-78
2021/12/23 12:16:29;;;;;;;0.63;0.30;;;;;;;25.00;13.51;98424.56;5114772;28;20031;-77
2021/12/23 12:18:55;;;;;;;0.43;0.20;;;;;;;24.98;13.54;98418.63;5096620;28;20088;-77
2021/12/23 12:21:31;;;;;;;1.02;0.20;;;;;;;25.00;13.33;98410.88;5096462;28;20122;-78
2021/12/23 12:24:13;;;;;;;1.50;0.30;;;;;;;25.03;13.28;98405.56;5097508;28;20102;-77
2021/12/23 12:26:56;;;;;;;0.10;0.10;;;;;;;24.99;13.33;98401.06;5095960;28;20063;-77
2021/12/23 12:29:25;;;;;;;0.10;0.10;;;;;;;24.97;13.07;98401.41;5096261;28;20082;-77
2021/12/23 12:31:51;;;;;;;0.30;0.20;;;;;;;24.83;13.22;98396.19;5114760;28;20035;-77
2021/12/23 12:34:19;;;;;;;0.30;0.20;;;;;;;24.91;13.13;98391.81;5114368;28;20361;-78
2021/12/23 12:36:49;;;;;;;0.20;0.20;;;;;;;24.96;13.18;98388.06;5096075;28;20068;-77
2021/12/23 12:39:31;;;;;;;0.20;0.20;;;;;;;24.97;13.39;98386.97;5114294;28;20084;-77
2021/12/23 12:42:02;;;;;;;0.20;0.20;;;;;;;24.92;13.28;98386.03;5114215;28;20023;-77